Pagrindinis puslapis
METAR-TAF:

METAR-TAF

Oro uostai :

Kolkata, Indija

platuma: 22-39N, ilguma: 088-27E, Aukštis: 4 m

Dabartinis oras

Ataskaita buvo paskelbta 22 minutes, ne 05:00 UTC
Vėjas 10 kt iš Rytų/Pietryčių
Temperatūra 33°C
Drėgmė 71%
Slėgis 1010 hPa
Matomumas: 4000 m
Išsisklaidę debesys ne aukštis 1800 ft
Išsisklaidę debesys ne aukštis 2500 ft
migla

METAR: VECC 180500Z 11010KT 4000 HZ SCT018 SCT025 33/27 Q1010 NOSIG

Laikas: 10:52 (05:22 UTC)

Prognozė

Ataskaita buvo paskelbta 3 valandos ir 22 minutes, ne 02:00 UTC
Prognozė galioja nuo 18 metu 03 UTC su 18 metu 12 UTC
Vėjas 6 kt iš Rytų/Pietryčių
Matomumas: 3500 m
Išsisklaidę debesys ne aukštis 1800 ft
Išsisklaidę debesys ne aukštis 10000 ft
migla

TAF: VECC 180200Z 1803/1812 12006KT 3500 HZ SCT018 SDCT025 SCT100

Orai ataskaitas ir orų prognozės (METAR, TAF).

turimą stotys yra geltonos ir raudonos taškus žemėlapyje.

Perkelti pele per norėdami pamatyti stoties vardą.

Tada spustelėkite, norėdami matyti oro stebėjimo ir prognozės.

Norėdami pakeisti žemėlapį: spustelėkite ant žalios mygtukų su juodo kryžiaus žemyn,; žalią mygtuką su brūkšneliu, jei norite nutolinti; arba žalių rodyklių gretimoms žemėlapius.


METAR-TAF: